Time;durP1;ratioP1;P1;durP2;ratioP2;P2;SDS_P1;SDS_P2;PMS_P1;PMS_P2;Temp;Humidity;BMP_temperature;BMP_pressure;BME280_temperature;BME280_humidity;BME280_pressure;Samples;Min_cycle;Max_cycle;Signal;HPM_P1;HPM_P2
2022/11/17 00:02:05;;;;;;;0.50;0.50;;;5.60;99.90;;;;;;4388663;32;20114;-78
2022/11/17 00:04:31;;;;;;;1.23;0.62;;;5.50;99.90;;;;;;4381739;32;20840;-78
2022/11/17 00:06:57;;;;;;;1.58;1.20;;;5.40;99.90;;;;;;4386102;32;20081;-80
2022/11/17 00:09:23;;;;;;;0.52;0.52;;;5.40;99.90;;;;;;4397626;32;20089;-79
2022/11/17 00:14:35;;;;;;;0.43;0.43;;;5.30;99.90;;;;;;4388607;32;20125;-81
2022/11/17 00:17:04;;;;;;;0.50;0.50;;;5.40;99.90;;;;;;4398413;32;20928;-80
2022/11/17 00:21:17;;;;;;;0.40;0.40;;;5.30;99.90;;;;;;4396866;32;20082;-79
2022/11/17 00:22:15;;;;;;;0.80;0.80;;;5.20;99.90;;;;;;4387549;32;20094;-79
2022/11/17 00:24:40;;;;;;;0.40;0.40;;;5.30;99.90;;;;;;4396147;32;20375;-80
2022/11/17 00:27:06;;;;;;;1.35;0.90;;;5.30;99.90;;;;;;4397317;32;21004;-78
2022/11/17 00:29:32;;;;;;;3.45;1.02;;;5.30;99.90;;;;;;4396353;32;20102;-78
2022/11/17 00:34:04;;;;;;;3.83;2.05;;;5.40;99.90;;;;;;4397604;32;20124;-79
2022/11/17 00:34:43;;;;;;;0.80;0.75;;;5.30;99.90;;;;;;4370742;32;20497;-75
2022/11/17 00:37:10;;;;;;;0.43;0.43;;;5.40;99.90;;;;;;4384954;32;20113;-78
2022/11/17 00:39:36;;;;;;;0.57;0.57;;;5.30;99.90;;;;;;4400147;32;20082;-80
2022/11/17 00:42:02;;;;;;;1.25;1.15;;;5.20;99.90;;;;;;4396997;32;20661;-77
2022/11/17 00:44:27;;;;;;;0.80;0.80;;;5.10;99.90;;;;;;4398224;32;20105;-78
2022/11/17 00:46:53;;;;;;;0.57;0.57;;;5.10;99.90;;;;;;4399881;32;20102;-79
2022/11/17 00:49:20;;;;;;;0.60;0.60;;;5.10;99.90;;;;;;4400418;32;20422;-79
2022/11/17 00:51:46;;;;;;;0.70;0.70;;;5.10;99.90;;;;;;4399359;32;20089;-77
2022/11/17 00:54:12;;;;;;;0.57;0.57;;;5.10;99.90;;;;;;4397662;32;20726;-78
2022/11/17 00:56:38;;;;;;;5.28;0.88;;;5.00;99.90;;;;;;4398735;32;20127;-75
2022/11/17 00:59:04;;;;;;;1.25;1.15;;;5.10;99.90;;;;;;4397922;32;20069;-80
2022/11/17 01:01:30;;;;;;;0.85;0.85;;;5.10;99.90;;;;;;4399169;32;20541;-77
2022/11/17 01:04:05;;;;;;;2.42;1.33;;;5.00;99.90;;;;;;4385292;32;20210;-75
2022/11/17 01:06:38;;;;;;;1.37;0.90;;;5.00;99.90;;;;;;4381687;32;20066;-77
2022/11/17 01:09:08;;;;;;;0.50;0.50;;;5.10;99.90;;;;;;4397427;32;20511;-79
2022/11/17 01:11:34;;;;;;;0.40;0.40;;;5.10;99.90;;;;;;4396107;32;20073;-76
2022/11/17 01:14:00;;;;;;;0.40;0.40;;;5.10;99.90;;;;;;4398048;32;20089;-79
2022/11/17 01:16:27;;;;;;;1.02;0.75;;;5.10;99.90;;;;;;4397034;32;20149;-75
2022/11/17 01:18:52;;;;;;;2.92;2.08;;;5.10;99.90;;;;;;4400063;32;20443;-77
2022/11/17 01:21:21;;;;;;;0.65;0.40;;;5.10;99.90;;;;;;4400567;32;20074;-77
2022/11/17 01:23:49;;;;;;;0.57;0.57;;;5.10;99.90;;;;;;4398334;32;20073;-76
2022/11/17 01:26:19;;;;;;;0.95;0.95;;;5.10;99.90;;;;;;4399794;32;20080;-78
2022/11/17 01:28:45;;;;;;;0.62;0.62;;;5.00;99.90;;;;;;4400920;32;20536;-77
2022/11/17 01:31:14;;;;;;;0.55;0.55;;;4.90;99.90;;;;;;4402799;32;20135;-78
2022/11/17 01:33:40;;;;;;;0.57;0.57;;;5.00;99.90;;;;;;4389995;32;20070;-74
2022/11/17 01:36:10;;;;;;;1.30;1.20;;;4.90;99.90;;;;;;4383289;32;20102;-77
2022/11/17 01:38:36;;;;;;;0.60;0.60;;;4.80;99.90;;;;;;4399237;32;20093;-77
2022/11/17 01:41:04;;;;;;;0.60;0.60;;;4.90;99.90;;;;;;4399149;32;20136;-78
2022/11/17 01:43:40;;;;;;;0.55;0.50;;;5.00;99.90;;;;;;4401526;32;20077;-77
2022/11/17 01:46:19;;;;;;;0.55;0.55;;;4.90;99.90;;;;;;4401927;32;20498;-77
2022/11/17 01:48:46;;;;;;;0.68;0.68;;;4.90;99.90;;;;;;4399445;32;20085;-78
2022/11/17 01:51:14;;;;;;;0.50;0.50;;;4.80;99.90;;;;;;4399063;32;20447;-78
2022/11/17 01:53:41;;;;;;;0.80;0.80;;;4.90;99.90;;;;;;4395771;32;20058;-77
2022/11/17 01:56:10;;;;;;;0.95;0.95;;;4.90;99.90;;;;;;4397266;32;20101;-77
2022/11/17 01:58:41;;;;;;;0.90;0.90;;;4.90;99.90;;;;;;4397404;32;20521;-77
2022/11/17 02:01:06;;;;;;;3.08;0.90;;;5.00;99.90;;;;;;4399509;32;20153;-78
2022/11/17 02:03:33;;;;;;;0.70;0.70;;;5.00;99.90;;;;;;4390840;32;20086;-74
2022/11/17 02:06:06;;;;;;;0.98;0.90;;;5.00;99.90;;;;;;4381484;32;20205;-75
2022/11/17 02:08:34;;;;;;;0.65;0.65;;;4.90;99.90;;;;;;4396627;32;20058;-77
2022/11/17 02:11:02;;;;;;;0.88;0.85;;;5.00;99.90;;;;;;4398087;32;20129;-77
2022/11/17 02:13:28;;;;;;;3.60;1.60;;;5.00;99.90;;;;;;4397625;32;20125;-76
2022/11/17 02:15:54;;;;;;;0.40;0.40;;;5.10;99.90;;;;;;4399134;32;20149;-75
2022/11/17 02:18:19;;;;;;;0.40;0.40;;;5.10;99.90;;;;;;4401937;32;21101;-76
2022/11/17 02:20:58;;;;;;;0.73;0.73;;;5.00;99.90;;;;;;4399804;32;20597;-77
2022/11/17 02:24:02;;;;;;;0.60;0.60;;;5.00;99.90;;;;;;4401862;32;20432;-77
2022/11/17 02:26:58;;;;;;;0.47;0.47;;;4.90;99.90;;;;;;4388964;32;20157;-78
2022/11/17 02:29:39;;;;;;;0.50;0.50;;;4.90;99.90;;;;;;4379748;32;20101;-77
2022/11/17 02:32:15;;;;;;;1.25;1.02;;;4.90;99.90;;;;;;4400414;32;20460;-77
2022/11/17 02:34:45;;;;;;;0.65;0.62;;;4.80;99.90;;;;;;4379442;32;20093;-74
2022/11/17 02:37:19;;;;;;;0.45;0.45;;;4.80;99.90;;;;;;4387565;32;20074;-78
2022/11/17 02:39:56;;;;;;;0.45;0.45;;;4.80;99.90;;;;;;4398944;32;20070;-77
2022/11/17 02:44:30;;;;;;;0.40;0.40;;;4.80;99.90;;;;;;4398185;32;20089;-78
2022/11/17 02:45:20;;;;;;;0.82;0.60;;;4.80;99.90;;;;;;4386375;32;20129;-76
2022/11/17 02:47:49;;;;;;;0.50;0.50;;;4.80;99.90;;;;;;4397615;32;20073;-77
2022/11/17 02:50:17;;;;;;;0.37;0.37;;;4.90;99.90;;;;;;4396181;32;21302;-78
2022/11/17 02:52:42;;;;;;;0.40;0.40;;;4.90;99.90;;;;;;4398854;32;20416;-77
2022/11/17 02:55:09;;;;;;;0.75;0.75;;;4.90;99.90;;;;;;4397083;32;20102;-79
2022/11/17 02:57:37;;;;;;;0.60;0.60;;;4.90;99.90;;;;;;4399704;32;20530;-79
2022/11/17 03:00:09;;;;;;;0.40;0.40;;;4.90;99.90;;;;;;4403342;32;20082;-76
2022/11/17 03:02:38;;;;;;;0.82;0.82;;;4.90;99.90;;;;;;4398998;32;20459;-77
2022/11/17 03:05:30;;;;;;;0.50;0.50;;;5.00;99.90;;;;;;4381051;32;20069;-75
2022/11/17 03:08:28;;;;;;;0.30;0.30;;;5.00;99.90;;;;;;4383199;32;20440;-77
2022/11/17 03:11:01;;;;;;;0.40;0.40;;;5.00;99.90;;;;;;4387277;32;20078;-77
2022/11/17 03:13:52;;;;;;;0.47;0.47;;;5.00;99.90;;;;;;4398225;32;20093;-78
2022/11/17 03:16:40;;;;;;;0.40;0.40;;;5.00;99.90;;;;;;4388112;32;20077;-77
2022/11/17 03:19:12;;;;;;;0.50;0.50;;;5.00;99.90;;;;;;4399186;32;20098;-77
2022/11/17 03:21:43;;;;;;;0.40;0.40;;;4.90;99.90;;;;;;4399803;32;20090;-79
2022/11/17 03:24:23;;;;;;;0.40;0.40;;;4.90;99.90;;;;;;4398467;32;20089;-78
2022/11/17 03:27:02;;;;;;;0.50;0.50;;;4.80;99.90;;;;;;4385935;32;21285;-79
2022/11/17 03:29:32;;;;;;;0.40;0.40;;;4.90;99.90;;;;;;4384795;32;20081;-78
2022/11/17 03:32:02;;;;;;;0.40;0.40;;;4.90;99.90;;;;;;4399717;32;20077;-77
2022/11/17 03:34:34;;;;;;;0.50;0.50;;;5.00;99.90;;;;;;4385331;32;20074;-76
2022/11/17 03:37:03;;;;;;;0.40;0.40;;;4.90;99.90;;;;;;4385774;32;20097;-78
2022/11/17 03:39:32;;;;;;;0.82;0.82;;;4.90;99.90;;;;;;4401195;32;20105;-77
2022/11/17 03:42:06;;;;;;;1.15;1.05;;;4.90;99.90;;;;;;4398494;32;20522;-77
2022/11/17 03:44:36;;;;;;;0.65;0.52;;;5.00;99.90;;;;;;4397315;32;20082;-77
2022/11/17 03:47:06;;;;;;;0.52;0.52;;;4.90;99.90;;;;;;4398495;32;21138;-79
2022/11/17 03:49:42;;;;;;;0.50;0.50;;;4.80;99.90;;;;;;4397057;32;20517;-78
2022/11/17 03:52:07;;;;;;;0.77;0.77;;;4.80;99.90;;;;;;4398008;32;20082;-79
2022/11/17 03:54:35;;;;;;;0.32;0.32;;;4.80;99.90;;;;;;4395820;32;20114;-78
2022/11/17 03:57:11;;;;;;;0.47;0.47;;;4.90;99.90;;;;;;4400830;32;20098;-78
2022/11/17 03:59:59;;;;;;;1.00;0.93;;;4.80;99.90;;;;;;4397953;32;20074;-77
2022/11/17 04:02:26;;;;;;;0.85;0.85;;;4.90;99.90;;;;;;4388561;32;20065;-77
2022/11/17 04:05:06;;;;;;;0.60;0.60;;;4.90;99.90;;;;;;4381399;32;20082;-77
2022/11/17 04:07:34;;;;;;;;;;;4.90;99.90;;;;;;4392934;32;20070;-77
2022/11/17 04:10:00;;;;;;;0.37;0.37;;;4.90;99.90;;;;;;4398145;32;19942;-77
2022/11/17 04:16:11;;;;;;;0.40;0.40;;;4.90;99.90;;;;;;4384660;32;20069;-79
2022/11/17 04:17:57;;;;;;;1.67;0.68;;;4.90;99.90;;;;;;4398379;32;20077;-78
2022/11/17 04:20:22;;;;;;;1.12;1.02;;;4.90;99.90;;;;;;4396969;32;20935;-79
2022/11/17 04:23:05;;;;;;;0.70;0.70;;;4.90;99.90;;;;;;4401683;32;20074;-77
2022/11/17 04:28:50;;;;;;;0.62;0.62;;;5.00;99.90;;;;;;4389930;32;21028;-75
2022/11/17 04:31:18;;;;;;;0.82;0.80;;;5.00;99.90;;;;;;4388275;32;20070;-78
2022/11/17 04:33:46;;;;;;;0.77;0.77;;;5.00;99.90;;;;;;4388289;32;20078;-74
2022/11/17 04:36:13;;;;;;;0.40;0.40;;;5.00;99.90;;;;;;4381083;32;20175;-74
2022/11/17 04:38:41;;;;;;;1.90;1.00;;;5.10;99.90;;;;;;4398860;32;20486;-78
2022/11/17 04:42:08;;;;;;;0.50;0.50;;;5.00;99.90;;;;;;4397092;32;20061;-75
2022/11/17 04:43:54;;;;;;;1.77;1.10;;;5.00;99.90;;;;;;4386344;32;20141;-76
2022/11/17 04:46:21;;;;;;;0.62;0.50;;;4.90;99.90;;;;;;4400736;32;20082;-78
2022/11/17 04:48:47;;;;;;;0.60;0.60;;;4.80;99.90;;;;;;4399570;32;20075;-78
2022/11/17 04:51:14;;;;;;;0.68;0.68;;;4.80;99.90;;;;;;4399106;32;20057;-77
2022/11/17 04:53:40;;;;;;;0.50;0.50;;;4.90;99.90;;;;;;4398238;32;20116;-78
2022/11/17 04:56:06;;;;;;;0.65;0.65;;;5.00;99.90;;;;;;4398111;32;20090;-78
2022/11/17 04:58:32;;;;;;;0.40;0.40;;;5.00;99.90;;;;;;4396829;32;20542;-77
2022/11/17 05:01:11;;;;;;;0.60;0.60;;;5.20;99.90;;;;;;4399043;32;20137;-78
2022/11/17 05:03:40;;;;;;;0.60;0.60;;;5.10;99.90;;;;;;4383169;32;20065;-77
2022/11/17 05:06:05;;;;;;;3.30;1.80;;;5.00;99.90;;;;;;4381306;32;20081;-74
2022/11/17 05:08:31;;;;;;;0.50;0.50;;;4.90;99.90;;;;;;4394083;32;20095;-77
2022/11/17 05:13:28;;;;;;;0.60;0.60;;;4.90;99.90;;;;;;4397992;32;20073;-77
2022/11/17 05:13:43;;;;;;;0.82;0.80;;;4.90;99.90;;;;;;4387624;32;20061;-78
2022/11/17 05:17:08;;;;;;;0.40;0.40;;;4.90;99.90;;;;;;4397911;32;20637;-78
2022/11/17 05:18:54;;;;;;;2.60;0.85;;;4.90;99.90;;;;;;4388612;32;20149;-78
2022/11/17 05:21:19;;;;;;;5.40;1.30;;;4.90;99.90;;;;;;4392531;32;20188;-76
2022/11/17 05:24:00;;;;;;;1.55;0.70;;;4.90;99.90;;;;;;4358950;32;20069;-75
2022/11/17 05:26:26;;;;;;;;;;;5.00;99.90;;;;;;4365390;32;20313;-75
2022/11/17 05:28:54;;;;;;;0.57;0.57;;;5.00;99.90;;;;;;4352341;32;20100;-74
2022/11/17 05:31:20;;;;;;;0.95;0.90;;;5.00;99.90;;;;;;4365110;32;20103;-75
2022/11/17 05:33:45;;;;;;;2.47;0.85;;;5.00;99.90;;;;;;4346330;32;20074;-73
2022/11/17 05:36:11;;;;;;;0.65;0.60;;;5.00;99.90;;;;;;4350945;32;20321;-74
2022/11/17 05:38:37;;;;;;;0.40;0.40;;;5.00;99.90;;;;;;4393491;32;20079;-77
2022/11/17 05:41:03;;;;;;;1.02;0.80;;;5.00;99.90;;;;;;4397345;32;20514;-78
2022/11/17 05:43:29;;;;;;;0.68;0.68;;;5.00;99.90;;;;;;4399309;32;20090;-78
2022/11/17 05:45:54;;;;;;;0.60;0.60;;;5.00;99.90;;;;;;4398805;32;20101;-77
2022/11/17 05:48:20;;;;;;;0.93;0.90;;;5.10;99.90;;;;;;4399223;32;20117;-77
2022/11/17 05:50:45;;;;;;;0.40;0.40;;;5.10;99.90;;;;;;4397447;32;20098;-78
2022/11/17 05:53:12;;;;;;;0.57;0.57;;;5.00;99.90;;;;;;4364791;32;20156;-75
2022/11/17 05:55:37;;;;;;;0.90;0.90;;;5.00;99.90;;;;;;4365502;32;20078;-75
2022/11/17 05:58:11;;;;;;;0.57;0.57;;;5.00;99.90;;;;;;4388071;32;20094;-78
2022/11/17 06:00:38;;;;;;;0.88;0.88;;;5.10;99.90;;;;;;4396295;32;20074;-77
2022/11/17 06:03:11;;;;;;;0.52;0.52;;;5.10;99.90;;;;;;4374793;32;20467;-74
2022/11/17 06:05:36;;;;;;;2.78;1.33;;;5.20;99.90;;;;;;4353115;32;20274;-75
2022/11/17 06:08:02;;;;;;;0.82;0.82;;;5.20;99.90;;;;;;4353326;32;20102;-74
2022/11/17 06:10:27;;;;;;;1.23;0.98;;;5.20;99.90;;;;;;4359400;32;20433;-74
2022/11/17 06:12:53;;;;;;;0.40;0.40;;;5.20;99.90;;;;;;4353528;32;20120;-75
2022/11/17 06:15:18;;;;;;;0.75;0.75;;;5.00;99.90;;;;;;4348939;32;20148;-74
2022/11/17 06:17:50;;;;;;;2.35;1.42;;;5.10;99.90;;;;;;4341523;32;20287;-76
2022/11/17 06:20:20;;;;;;;0.40;0.40;;;5.20;99.90;;;;;;4316993;32;20097;-74
2022/11/17 06:22:46;;;;;;;0.77;0.77;;;5.00;99.90;;;;;;4320138;32;20085;-75
2022/11/17 06:25:12;;;;;;;0.50;0.50;;;5.10;99.90;;;;;;4297798;32;20438;-74
2022/11/17 06:27:40;;;;;;;0.80;0.77;;;5.20;99.90;;;;;;4330752;32;20592;-75
2022/11/17 06:30:06;;;;;;;0.75;0.75;;;5.20;99.90;;;;;;4295131;32;20211;-73
2022/11/17 06:32:35;;;;;;;0.62;0.62;;;5.20;99.90;;;;;;4300994;32;20089;-75
2022/11/17 06:35:04;;;;;;;0.77;0.77;;;5.10;99.90;;;;;;4313315;32;20300;-74
2022/11/17 06:37:29;;;;;;;0.82;0.82;;;5.10;99.90;;;;;;4327158;32;20545;-74
2022/11/17 06:39:55;;;;;;;4.45;1.08;;;5.20;99.90;;;;;;4328962;32;20394;-75
2022/11/17 06:43:02;;;;;;;3.22;1.23;;;5.20;99.90;;;;;;4338860;32;20099;-74
2022/11/17 06:45:06;;;;;;;1.00;0.85;;;5.20;99.90;;;;;;4338725;32;20720;-75
2022/11/17 06:47:32;;;;;;;0.68;0.68;;;5.30;99.90;;;;;;4359088;32;21059;-75
2022/11/17 06:49:57;;;;;;;2.53;1.95;;;5.30;99.90;;;;;;4356846;32;20446;-75
2022/11/17 06:52:24;;;;;;;4.18;1.30;;;5.30;99.90;;;;;;4356931;32;20732;-76
2022/11/17 06:54:49;;;;;;;1.27;1.20;;;5.30;99.90;;;;;;4371496;32;20101;-75
2022/11/17 06:57:15;;;;;;;0.62;0.62;;;5.30;99.90;;;;;;4370557;32;20501;-78
2022/11/17 06:59:41;;;;;;;0.40;0.40;;;5.30;99.90;;;;;;4355338;32;20197;-77
2022/11/17 07:02:06;;;;;;;0.60;0.60;;;5.40;99.90;;;;;;4344625;32;20209;-75
2022/11/17 07:04:32;;;;;;;0.50;0.50;;;5.40;99.90;;;;;;4330859;32;20760;-75
2022/11/17 07:06:57;;;;;;;0.60;0.60;;;5.30;99.90;;;;;;4335745;32;20414;-75
2022/11/17 07:09:24;;;;;;;0.40;0.40;;;5.30;99.90;;;;;;4354056;32;20099;-75
2022/11/17 07:11:50;;;;;;;1.40;1.02;;;5.30;99.90;;;;;;4357268;32;20567;-76
2022/11/17 07:14:15;;;;;;;0.40;0.40;;;5.40;99.90;;;;;;4362117;32;20114;-76
2022/11/17 07:16:42;;;;;;;0.47;0.47;;;5.40;99.90;;;;;;4358632;32;20109;-76
2022/11/17 07:19:08;;;;;;;0.60;0.60;;;5.40;99.90;;;;;;4349587;32;20317;-76
2022/11/17 07:21:34;;;;;;;0.50;0.50;;;5.40;99.90;;;;;;4354808;32;20105;-76
2022/11/17 07:24:00;;;;;;;1.65;1.05;;;5.40;99.90;;;;;;4350362;32;21625;-76
2022/11/17 07:26:26;;;;;;;0.60;0.60;;;5.40;99.90;;;;;;4362204;32;20086;-78
2022/11/17 07:28:51;;;;;;;0.68;0.68;;;5.50;99.90;;;;;;4363196;32;20086;-76
2022/11/17 07:31:17;;;;;;;0.45;0.45;;;5.50;99.90;;;;;;4343471;32;98042;-76
2022/11/17 07:33:42;;;;;;;0.70;0.70;;;5.50;99.90;;;;;;4335830;32;20236;-76
2022/11/17 07:36:10;;;;;;;0.40;0.40;;;5.50;99.90;;;;;;4353807;32;20851;-77
2022/11/17 07:38:37;;;;;;;0.30;0.30;;;5.50;99.90;;;;;;4361201;32;20433;-79
2022/11/17 07:41:03;;;;;;;0.73;0.73;;;5.40;99.90;;;;;;4363449;32;21122;-78
2022/11/17 07:43:29;;;;;;;0.70;0.70;;;5.40;99.90;;;;;;4361004;32;20990;-79
2022/11/17 07:45:55;;;;;;;1.37;1.23;;;5.50;99.90;;;;;;4355699;32;20089;-78
2022/11/17 07:48:21;;;;;;;0.57;0.57;;;5.50;99.90;;;;;;4353753;32;20621;-76
2022/11/17 07:50:46;;;;;;;0.57;0.57;;;5.40;99.90;;;;;;4348855;32;20153;-74
2022/11/17 07:53:12;;;;;;;0.82;0.82;;;5.50;99.90;;;;;;4355522;32;20820;-77
2022/11/17 07:55:38;;;;;;;0.60;0.60;;;5.50;99.90;;;;;;4363208;32;21544;-78
2022/11/17 07:58:03;;;;;;;0.65;0.65;;;5.60;99.90;;;;;;4362486;32;20102;-80
2022/11/17 08:00:32;;;;;;;0.70;0.70;;;5.60;99.90;;;;;;4351088;32;20376;-77
2022/11/17 08:03:00;;;;;;;1.65;1.00;;;5.60;99.90;;;;;;4342003;32;21103;-75
2022/11/17 08:05:29;;;;;;;1.23;1.02;;;5.60;99.90;;;;;;4342701;32;20093;-75
2022/11/17 08:07:56;;;;;;;2.30;0.90;;;5.60;99.90;;;;;;4361775;32;20251;-75
2022/11/17 08:10:21;;;;;;;0.50;0.50;;;5.50;99.90;;;;;;4362187;32;20307;-76
2022/11/17 08:12:50;;;;;;;0.50;0.50;;;5.60;99.90;;;;;;4353232;32;20873;-74
2022/11/17 08:15:16;;;;;;;0.70;0.70;;;5.60;99.90;;;;;;4355532;32;21494;-75
2022/11/17 08:17:41;;;;;;;0.40;0.40;;;5.70;99.90;;;;;;4357830;32;20277;-76
2022/11/17 08:20:07;;;;;;;0.50;0.50;;;5.60;99.90;;;;;;4355482;32;20230;-76
2022/11/17 08:22:33;;;;;;;0.60;0.60;;;5.60;99.90;;;;;;4340996;32;20421;-75
2022/11/17 08:24:58;;;;;;;4.40;1.52;;;5.50;99.90;;;;;;4353987;32;20942;-76
2022/11/17 08:27:24;;;;;;;0.57;0.57;;;5.50;99.90;;;;;;4354387;32;20553;-76
2022/11/17 08:29:50;;;;;;;0.90;0.90;;;5.60;99.90;;;;;;4328422;32;21072;-76
2022/11/17 08:32:16;;;;;;;0.50;0.50;;;5.60;99.90;;;;;;4321342;32;20478;-76
2022/11/17 08:34:41;;;;;;;0.40;0.40;;;5.60;99.90;;;;;;4327816;32;20977;-77
2022/11/17 08:37:08;;;;;;;0.80;0.65;;;5.60;99.90;;;;;;4365389;32;21019;-79
2022/11/17 08:39:33;;;;;;;0.50;0.50;;;5.60;99.90;;;;;;4378344;32;20181;-79
2022/11/17 08:41:59;;;;;;;0.45;0.45;;;5.60;99.90;;;;;;4374244;32;20115;-79
2022/11/17 08:44:24;;;;;;;1.00;0.73;;;5.60;99.90;;;;;;4368570;32;20554;-76
2022/11/17 08:46:50;;;;;;;0.55;0.55;;;5.70;99.90;;;;;;4361636;32;21428;-78
2022/11/17 08:49:15;;;;;;;15.13;0.85;;;5.70;99.90;;;;;;4354769;32;20113;-79
2022/11/17 08:51:42;;;;;;;0.30;0.30;;;5.70;99.90;;;;;;4350322;32;20648;-80
2022/11/17 08:54:10;;;;;;;0.52;0.52;;;5.70;99.90;;;;;;4357908;32;20826;-80
2022/11/17 08:56:38;;;;;;;0.37;0.37;;;5.80;99.90;;;;;;4377234;32;20105;-83
2022/11/17 08:59:04;;;;;;;2.10;1.23;;;5.70;99.90;;;;;;4364168;32;21263;-78
2022/11/17 09:01:29;;;;;;;0.52;0.52;;;5.70;99.90;;;;;;4344483;32;20302;-76
2022/11/17 09:03:55;;;;;;;1.02;0.75;;;5.80;99.90;;;;;;4340701;32;20391;-75
2022/11/17 09:06:20;;;;;;;0.47;0.47;;;5.80;99.90;;;;;;4357463;32;20584;-80
2022/11/17 09:08:47;;;;;;;0.40;0.40;;;5.80;99.90;;;;;;4369699;32;20201;-78
2022/11/17 09:11:13;;;;;;;0.77;0.77;;;5.90;99.90;;;;;;4367492;32;20604;-76
2022/11/17 09:13:39;;;;;;;0.45;0.45;;;5.90;99.90;;;;;;4358368;32;20105;-77
2022/11/17 09:16:06;;;;;;;0.47;0.47;;;5.90;99.90;;;;;;4354992;32;20557;-77
2022/11/17 09:18:32;;;;;;;0.77;0.77;;;5.80;99.90;;;;;;4357257;32;20406;-77
2022/11/17 09:21:00;;;;;;;0.60;0.60;;;5.70;99.90;;;;;;4348193;32;20109;-77
2022/11/17 09:23:27;;;;;;;9.65;0.90;;;5.70;99.90;;;;;;4349104;32;20164;-77
2022/11/17 09:25:52;;;;;;;0.60;0.60;;;5.70;99.90;;;;;;4362236;32;20110;-79
2022/11/17 09:28:18;;;;;;;1.00;0.90;;;5.80;99.90;;;;;;4360465;32;20284;-78
2022/11/17 09:30:43;;;;;;;0.43;0.43;;;5.80;99.90;;;;;;4334275;32;20110;-77
2022/11/17 09:33:09;;;;;;;0.88;0.77;;;5.80;99.90;;;;;;4321721;32;20398;-76
2022/11/17 09:35:34;;;;;;;0.70;0.47;;;5.80;99.90;;;;;;4336493;32;22349;-77
2022/11/17 09:38:00;;;;;;;0.70;0.70;;;5.80;99.90;;;;;;4345528;32;20679;-77
2022/11/17 09:40:26;;;;;;;0.77;0.77;;;5.80;99.90;;;;;;4345748;32;20401;-77
2022/11/17 09:42:52;;;;;;;0.82;0.82;;;5.70;99.90;;;;;;4351612;32;20512;-78
2022/11/17 09:45:26;;;;;;;0.82;0.82;;;5.70;99.90;;;;;;4361694;32;20251;-77
2022/11/17 09:47:58;;;;;;;0.50;0.50;;;5.70;99.90;;;;;;4359910;32;20281;-78
2022/11/17 09:50:41;;;;;;;2.85;1.35;;;5.70;99.90;;;;;;4355367;32;20761;-77
2022/11/17 09:53:21;;;;;;;0.65;0.65;;;5.70;99.90;;;;;;4367304;32;20154;-79
2022/11/17 09:55:50;;;;;;;0.65;0.65;;;5.80;99.90;;;;;;4372396;32;20082;-79
2022/11/17 09:58:42;;;;;;;1.27;1.02;;;5.80;99.90;;;;;;4358877;32;21793;-78
2022/11/17 10:01:12;;;;;;;0.73;0.73;;;5.80;99.90;;;;;;4335721;32;20094;-78
2022/11/17 10:03:40;;;;;;;1.85;0.68;;;5.70;99.90;;;;;;4349784;32;20882;-77
2022/11/17 10:06:11;;;;;;;0.88;0.88;;;5.80;99.90;;;;;;4350788;32;20426;-77
2022/11/17 10:08:44;;;;;;;0.52;0.52;;;5.90;99.90;;;;;;4362437;32;20082;-78
2022/11/17 10:11:44;;;;;;;0.77;0.70;;;5.90;99.90;;;;;;4352337;32;20975;-77
2022/11/17 10:14:10;;;;;;;0.60;0.60;;;5.90;99.90;;;;;;4352545;32;20097;-78
2022/11/17 10:16:37;;;;;;;0.40;0.40;;;5.90;99.90;;;;;;4366855;32;21328;-78
2022/11/17 10:19:24;;;;;;;0.80;0.80;;;5.90;99.90;;;;;;4337402;32;20301;-79
2022/11/17 10:21:56;;;;;;;0.77;0.77;;;5.80;99.90;;;;;;4342476;32;20825;-76
2022/11/17 10:24:49;;;;;;;1.25;0.82;;;5.80;99.90;;;;;;4333621;32;20639;-79
2022/11/17 10:27:25;;;;;;;0.60;0.60;;;5.80;99.90;;;;;;4337122;32;20143;-79
2022/11/17 10:30:04;;;;;;;0.60;0.60;;;5.80;99.90;;;;;;4339514;32;21417;-77
2022/11/17 10:32:33;;;;;;;0.82;0.80;;;5.80;99.90;;;;;;4331720;32;20090;-76
2022/11/17 10:35:20;;;;;;;0.70;0.70;;;5.80;99.90;;;;;;4338337;32;21495;-76
2022/11/17 10:38:07;;;;;;;1.95;1.42;;;5.80;99.90;;;;;;4343842;32;20423;-78
2022/11/17 10:40:43;;;;;;;0.93;0.73;;;5.90;99.90;;;;;;4348063;32;20535;-77
2022/11/17 10:43:15;;;;;;;0.60;0.60;;;5.80;99.90;;;;;;4354312;32;20188;-76
2022/11/17 10:46:03;;;;;;;0.93;0.70;;;5.80;99.90;;;;;;4359683;32;20150;-77
2022/11/17 10:48:31;;;;;;;0.98;0.88;;;5.80;99.90;;;;;;4347342;32;20492;-76
2022/11/17 10:51:00;;;;;;;0.50;0.50;;;5.90;99.90;;;;;;4347414;32;20827;-76
2022/11/17 10:53:43;;;;;;;0.50;0.50;;;5.90;99.90;;;;;;4329765;32;20122;-77
2022/11/17 10:56:16;;;;;;;2.30;1.02;;;5.80;99.90;;;;;;4352778;32;20097;-76
2022/11/17 10:59:19;;;;;;;1.20;0.60;;;5.80;99.90;;;;;;4350462;32;20206;-76
2022/11/17 11:01:49;;;;;;;0.57;0.57;;;5.80;99.90;;;;;;4326198;32;20866;-76
2022/11/17 11:04:36;;;;;;;0.68;0.62;;;5.90;99.90;;;;;;4332935;32;20102;-75
2022/11/17 11:07:07;;;;;;;1.12;0.62;;;5.90;99.90;;;;;;4343466;32;20153;-77
2022/11/17 11:09:36;;;;;;;0.75;0.70;;;5.90;99.90;;;;;;4360592;32;20102;-77
2022/11/17 11:12:03;;;;;;;2.47;0.90;;;5.90;99.90;;;;;;4356470;32;20089;-78
2022/11/17 11:14:50;;;;;;;1.05;0.95;;;5.80;99.90;;;;;;4358533;32;20160;-78
2022/11/17 11:22:30;;;;;;;0.68;0.68;;;6.00;99.90;;;;;;4360002;32;20108;-75
2022/11/17 11:25:07;;;;;;;4.57;1.27;;;6.00;99.90;;;;;;4336008;32;20945;-77
2022/11/17 11:28:01;;;;;;;0.50;0.50;;;6.00;99.90;;;;;;4363384;32;20086;-76
2022/11/17 11:30:28;;;;;;;0.95;0.95;;;5.90;99.90;;;;;;4338149;32;20144;-78
2022/11/17 11:33:19;;;;;;;0.77;0.60;;;5.80;99.90;;;;;;4356690;32;20126;-79
2022/11/17 11:36:14;;;;;;;0.60;0.60;;;5.80;99.90;;;;;;4348106;32;20599;-79
2022/11/17 11:39:05;;;;;;;0.40;0.40;;;5.80;99.90;;;;;;4368292;32;20105;-79
2022/11/17 11:41:37;;;;;;;;;;;5.90;99.90;;;;;;4372044;32;21512;-76
2022/11/17 11:44:15;;;;;;;0.37;0.37;;;5.90;99.90;;;;;;4372017;32;20213;-78
2022/11/17 11:47:00;;;;;;;10.70;2.65;;;5.90;99.90;;;;;;4356572;32;20139;-78
2022/11/17 11:49:43;;;;;;;1.17;0.75;;;5.90;99.90;;;;;;4351443;32;20738;-79
2022/11/17 11:52:15;;;;;;;0.50;0.50;;;5.90;99.90;;;;;;4351788;32;20243;-78
2022/11/17 11:57:12;;;;;;;19.20;3.42;;;5.90;99.90;;;;;;4345355;32;20538;-78
2022/11/17 11:59:47;;;;;;;1.73;1.17;;;6.00;99.90;;;;;;4335603;32;20499;-77
2022/11/17 12:02:23;;;;;;;0.50;0.50;;;6.00;99.90;;;;;;4346788;32;20114;-78
2022/11/17 12:05:06;;;;;;;0.52;0.52;;;6.00;99.90;;;;;;4326118;32;20140;-77
2022/11/17 12:07:56;;;;;;;0.50;0.50;;;6.00;99.90;;;;;;4328553;32;20861;-77
2022/11/17 12:11:58;;;;;;;2.10;1.10;;;6.00;99.90;;;;;;4350901;32;21135;-78
2022/11/17 12:13:48;;;;;;;0.50;0.50;;;6.00;99.90;;;;;;4337079;32;20097;-81
2022/11/17 12:16:16;;;;;;;0.50;0.50;;;6.00;99.90;;;;;;4356061;32;20823;-79
2022/11/17 12:18:42;;;;;;;1.65;1.52;;;6.00;99.90;;;;;;4350516;32;20101;-79
2022/11/17 12:21:11;;;;;;;0.90;0.80;;;6.00;99.90;;;;;;4346949;32;20234;-78
2022/11/17 12:23:54;;;;;;;0.60;0.60;;;6.00;99.90;;;;;;4342739;32;20235;-76
2022/11/17 12:26:24;;;;;;;0.52;0.52;;;6.00;99.90;;;;;;4331914;32;20133;-77
2022/11/17 12:29:27;;;;;;;0.50;0.50;;;6.10;99.90;;;;;;4343905;32;20401;-77
2022/11/17 12:31:55;;;;;;;0.95;0.95;;;6.10;99.90;;;;;;4322581;32;21490;-77
2022/11/17 12:34:25;;;;;;;0.45;0.45;;;6.00;99.90;;;;;;4336983;32;20121;-76
2022/11/17 12:37:14;;;;;;;1.35;0.95;;;5.90;99.90;;;;;;4351614;32;20694;-78
2022/11/17 12:40:01;;;;;;;0.65;0.65;;;6.00;99.90;;;;;;4340043;32;20306;-79
2022/11/17 12:42:29;;;;;;;0.50;0.50;;;6.00;99.90;;;;;;4352139;32;20337;-80
2022/11/17 12:44:57;;;;;;;0.85;0.82;;;6.00;99.90;;;;;;4364304;32;20357;-77
2022/11/17 12:47:27;;;;;;;0.62;0.62;;;6.00;99.90;;;;;;4368165;32;20094;-78
2022/11/17 12:50:03;;;;;;;0.62;0.62;;;6.00;99.90;;;;;;4357906;32;20816;-78
2022/11/17 12:52:54;;;;;;;0.70;0.47;;;6.00;99.90;;;;;;4366956;32;20135;-76
2022/11/17 12:55:45;;;;;;;0.73;0.73;;;6.00;99.90;;;;;;4353320;32;21078;-78
2022/11/17 12:58:28;;;;;;;0.40;0.40;;;6.00;99.90;;;;;;4358079;32;20133;-78
2022/11/17 13:01:18;;;;;;;0.57;0.57;;;6.00;99.90;;;;;;4369773;32;20157;-78
2022/11/17 13:04:09;;;;;;;1.40;1.30;;;6.00;99.90;;;;;;4360455;32;20122;-79
2022/11/17 13:06:34;;;;;;;0.95;0.82;;;6.00;99.90;;;;;;4367119;32;20693;-79
2022/11/17 13:09:05;;;;;;;1.35;0.82;;;6.00;99.90;;;;;;4377140;32;20081;-80
2022/11/17 13:11:31;;;;;;;0.40;0.40;;;6.00;99.90;;;;;;4374813;32;20387;-78
2022/11/17 13:14:16;;;;;;;2.08;0.70;;;6.00;99.90;;;;;;4369024;32;20110;-79
2022/11/17 13:16:47;;;;;;;3.35;1.02;;;5.90;99.90;;;;;;4365703;32;20426;-78
2022/11/17 13:19:34;;;;;;;0.45;0.45;;;5.90;99.90;;;;;;4372957;32;20073;-78
2022/11/17 13:22:05;;;;;;;0.90;0.90;;;5.90;99.90;;;;;;4366621;32;20145;-78
2022/11/17 13:24:33;;;;;;;0.43;0.43;;;6.00;99.90;;;;;;4374965;32;20387;-80
2022/11/17 13:27:01;;;;;;;0.40;0.40;;;6.00;99.90;;;;;;4386862;32;20255;-80
2022/11/17 13:29:27;;;;;;;0.75;0.75;;;6.00;99.90;;;;;;4375966;32;20136;-79
2022/11/17 13:32:15;;;;;;;0.52;0.52;;;6.10;99.90;;;;;;4366551;32;20584;-79
2022/11/17 13:34:55;;;;;;;0.40;0.40;;;6.10;99.90;;;;;;4340676;32;20113;-77
2022/11/17 13:37:26;;;;;;;0.40;0.40;;;6.00;99.90;;;;;;4373365;32;20128;-77